createdAt,value
2023-05-16T00:00:07.733Z,4.89
2023-05-16T00:02:34.125Z,5.26
2023-05-16T00:05:00.517Z,5.29
2023-05-16T00:07:26.898Z,5.74
2023-05-16T00:09:53.238Z,5.60
2023-05-16T00:12:19.629Z,5.60
2023-05-16T00:14:46.014Z,5.31
2023-05-16T00:17:12.547Z,5.51
2023-05-16T00:19:38.922Z,5.66
2023-05-16T00:22:05.222Z,5.45
2023-05-16T00:24:31.514Z,5.67
2023-05-16T00:26:57.838Z,5.96
2023-05-16T00:29:24.150Z,5.84
2023-05-16T00:31:50.508Z,6.08
2023-05-16T00:34:16.888Z,5.93
2023-05-16T00:36:43.188Z,6.00
2023-05-16T00:39:09.494Z,5.91
2023-05-16T00:41:35.810Z,6.23
2023-05-16T00:44:02.105Z,6.24
2023-05-16T00:46:28.431Z,6.11
2023-05-16T00:48:54.790Z,6.26
2023-05-16T00:51:21.083Z,6.51
2023-05-16T00:53:47.387Z,6.18
2023-05-16T00:56:13.709Z,5.77
2023-05-16T00:58:40.009Z,6.23
2023-05-16T01:01:06.370Z,6.68
2023-05-16T01:03:32.870Z,6.05
2023-05-16T01:05:59.306Z,6.36
2023-05-16T01:08:25.605Z,6.28
2023-05-16T01:10:51.920Z,5.96
2023-05-16T01:13:18.209Z,6.25
2023-05-16T01:15:44.521Z,6.02
2023-05-16T01:18:10.902Z,6.27
2023-05-16T01:20:37.228Z,6.45
2023-05-16T01:23:03.552Z,6.29
2023-05-16T01:25:29.870Z,6.59
2023-05-16T01:27:56.159Z,6.33
2023-05-16T01:30:22.462Z,6.22
2023-05-16T01:32:48.838Z,6.26
2023-05-16T01:35:17.501Z,6.14
2023-05-16T01:37:43.850Z,6.21
2023-05-16T01:40:10.186Z,5.76
2023-05-16T01:42:36.517Z,6.04
2023-05-16T01:45:02.815Z,6.19
2023-05-16T01:47:29.372Z,6.09
2023-05-16T01:49:55.762Z,6.38
2023-05-16T01:52:22.077Z,6.35
2023-05-16T01:54:48.607Z,6.21
2023-05-16T01:57:14.991Z,6.29
2023-05-16T01:59:41.293Z,6.25
2023-05-16T02:02:07.642Z,6.42
2023-05-16T02:04:33.957Z,6.25
2023-05-16T02:07:00.252Z,6.35
2023-05-16T02:09:26.622Z,6.02
2023-05-16T02:11:52.917Z,6.43
2023-05-16T02:14:19.238Z,5.91
2023-05-16T02:16:45.784Z,6.60
2023-05-16T02:19:12.215Z,7.14
2023-05-16T02:21:38.540Z,6.90
2023-05-16T02:24:04.863Z,7.06
2023-05-16T02:26:31.213Z,7.08
2023-05-16T02:28:57.536Z,7.17
2023-05-16T02:31:23.900Z,6.86
2023-05-16T02:33:50.224Z,6.57
2023-05-16T02:36:17.802Z,7.02
2023-05-16T02:38:44.118Z,7.29
2023-05-16T02:41:10.434Z,7.86
2023-05-16T02:43:36.736Z,8.30
2023-05-16T02:46:03.062Z,8.33
2023-05-16T02:48:29.372Z,7.80
2023-05-16T02:50:55.666Z,8.01
2023-05-16T02:53:21.970Z,7.61
2023-05-16T02:55:48.276Z,7.97
2023-05-16T02:58:14.575Z,7.73
2023-05-16T03:00:40.894Z,7.48
2023-05-16T03:03:07.294Z,7.56
2023-05-16T03:05:33.652Z,7.49
2023-05-16T03:07:59.963Z,7.43
2023-05-16T03:10:26.286Z,7.66
2023-05-16T03:12:52.598Z,7.29
2023-05-16T03:15:18.959Z,7.60
2023-05-16T03:17:45.316Z,7.25
2023-05-16T03:20:11.643Z,7.27
2023-05-16T03:22:37.965Z,8.48
2023-05-16T03:25:04.381Z,8.64
2023-05-16T03:27:30.684Z,8.80
2023-05-16T03:29:57.000Z,8.85
2023-05-16T03:32:23.357Z,8.49
2023-05-16T03:34:49.667Z,8.87
2023-05-16T03:37:15.984Z,8.45
2023-05-16T03:39:43.487Z,8.86
2023-05-16T03:42:09.805Z,8.52
2023-05-16T03:44:36.136Z,8.54
2023-05-16T03:47:02.451Z,8.33
2023-05-16T03:49:28.734Z,8.89
2023-05-16T03:51:55.059Z,8.77
2023-05-16T03:54:21.347Z,9.36
2023-05-16T03:56:47.881Z,10.15
2023-05-16T03:59:14.246Z,10.74
2023-05-16T04:01:40.583Z,10.66
2023-05-16T04:04:06.894Z,11.19
2023-05-16T04:06:33.211Z,10.98
2023-05-16T04:08:59.518Z,10.53
2023-05-16T04:11:25.814Z,9.88
2023-05-16T04:13:52.220Z,10.40
2023-05-16T04:16:18.637Z,10.81
2023-05-16T04:18:45.185Z,10.55
2023-05-16T04:21:11.573Z,10.55
2023-05-16T04:23:37.886Z,10.96
2023-05-16T04:26:04.188Z,11.21
2023-05-16T04:28:30.587Z,10.83
2023-05-16T04:30:56.894Z,10.59
2023-05-16T04:33:23.165Z,10.77
2023-05-16T04:35:50.112Z,11.06
2023-05-16T04:38:16.416Z,11.34
2023-05-16T04:40:42.714Z,10.76
2023-05-16T04:43:09.018Z,10.50
2023-05-16T04:45:37.402Z,10.51
2023-05-16T04:48:04.288Z,10.58
2023-05-16T04:50:30.610Z,10.82
2023-05-16T04:52:56.914Z,10.93
2023-05-16T04:55:23.229Z,12.06
2023-05-16T04:57:49.544Z,13.58
2023-05-16T05:00:15.850Z,11.50
2023-05-16T05:02:42.188Z,10.16
2023-05-16T05:05:08.566Z,9.96
2023-05-16T05:07:34.975Z,9.36
2023-05-16T05:10:01.280Z,9.56
2023-05-16T05:12:27.608Z,9.86
2023-05-16T05:14:53.902Z,10.10
2023-05-16T05:17:20.265Z,9.53
2023-05-16T05:19:46.633Z,9.69
2023-05-16T05:22:12.932Z,10.20
2023-05-16T05:24:39.222Z,10.32
2023-05-16T05:27:05.569Z,10.50
2023-05-16T05:29:31.886Z,10.16
2023-05-16T05:31:58.272Z,10.31
2023-05-16T05:34:24.704Z,9.95
2023-05-16T05:36:51.011Z,10.17
2023-05-16T05:39:17.306Z,10.31
2023-05-16T05:41:43.623Z,10.80
2023-05-16T05:44:09.926Z,10.68
2023-05-16T05:46:36.341Z,10.22
2023-05-16T05:49:02.715Z,9.90
2023-05-16T05:51:29.025Z,9.98
2023-05-16T05:53:55.338Z,10.44
2023-05-16T05:56:21.666Z,10.85
2023-05-16T05:58:47.970Z,10.77
2023-05-16T06:01:14.262Z,10.48
2023-05-16T06:03:40.637Z,10.33
2023-05-16T06:06:07.076Z,10.73
2023-05-16T06:08:33.448Z,10.93
2023-05-16T06:10:59.750Z,10.72
2023-05-16T06:13:26.051Z,11.38
2023-05-16T06:15:52.376Z,10.98
2023-05-16T06:18:18.714Z,11.10
2023-05-16T06:20:45.011Z,11.68
2023-05-16T06:23:11.308Z,11.56
2023-05-16T06:25:37.620Z,12.64
2023-05-16T06:28:03.926Z,13.37
2023-05-16T06:30:30.241Z,13.55
2023-05-16T06:32:56.643Z,13.74
2023-05-16T06:35:22.996Z,14.28
2023-05-16T06:37:49.325Z,13.72
2023-05-16T06:40:15.800Z,14.33
2023-05-16T06:42:42.152Z,13.52
2023-05-16T06:45:08.495Z,12.79
2023-05-16T06:47:34.944Z,9.99
2023-05-16T06:50:01.331Z,8.92
2023-05-16T06:52:27.728Z,7.72
2023-05-16T06:54:54.641Z,7.09
2023-05-16T06:57:21.020Z,8.14
2023-05-16T06:59:47.378Z,10.75
2023-05-16T07:02:13.741Z,10.92
2023-05-16T07:04:40.088Z,10.84
2023-05-16T07:07:06.433Z,10.48
2023-05-16T07:09:33.372Z,9.89
2023-05-16T07:11:59.797Z,9.80
2023-05-16T07:14:26.239Z,9.38
2023-05-16T07:16:53.149Z,9.06
2023-05-16T07:19:19.605Z,8.81
2023-05-16T07:21:46.062Z,8.72
2023-05-16T07:24:12.439Z,8.92
2023-05-16T07:26:38.774Z,9.30
2023-05-16T07:29:05.117Z,9.82
2023-05-16T07:31:31.586Z,9.25
2023-05-16T07:33:57.964Z,8.65
2023-05-16T07:36:24.311Z,9.10
2023-05-16T07:38:50.729Z,8.38
2023-05-16T07:41:17.234Z,7.67
2023-05-16T07:43:43.580Z,7.19
2023-05-16T07:46:10.026Z,6.87
2023-05-16T07:48:36.404Z,7.36
2023-05-16T07:51:02.764Z,8.16
2023-05-16T07:53:29.132Z,8.77
2023-05-16T07:55:55.485Z,9.60
2023-05-16T07:58:21.822Z,9.84
2023-05-16T08:00:48.188Z,10.22
2023-05-16T08:03:14.640Z,10.61
2023-05-16T08:05:41.105Z,11.67
2023-05-16T08:08:07.501Z,12.05
2023-05-16T08:10:33.841Z,12.49
2023-05-16T08:13:00.200Z,12.25
2023-05-16T08:15:26.705Z,12.05
2023-05-16T08:17:53.252Z,11.76
2023-05-16T08:20:19.606Z,12.09
2023-05-16T08:22:45.971Z,11.66
2023-05-16T08:25:12.318Z,11.68
2023-05-16T08:27:38.652Z,12.04
2023-05-16T08:30:05.018Z,12.45
2023-05-16T08:32:31.418Z,12.23
2023-05-16T08:34:57.833Z,13.00
2023-05-16T08:37:24.194Z,12.51
2023-05-16T08:39:50.646Z,12.49
2023-05-16T08:42:17.002Z,12.83
2023-05-16T08:44:43.477Z,12.67
2023-05-16T08:47:09.909Z,12.09
2023-05-16T08:49:36.415Z,12.06
2023-05-16T08:52:02.771Z,11.79
2023-05-16T08:54:29.111Z,11.66
2023-05-16T08:56:55.468Z,10.99
2023-05-16T08:59:21.845Z,10.33
2023-05-16T09:01:48.242Z,10.15
2023-05-16T09:04:14.700Z,9.99
2023-05-16T09:06:41.362Z,9.82
2023-05-16T09:09:07.717Z,9.34
2023-05-16T09:11:35.563Z,9.35
2023-05-16T09:14:03.241Z,9.09
2023-05-16T09:16:29.619Z,9.06
2023-05-16T09:18:56.077Z,9.12
2023-05-16T09:21:22.486Z,9.29
2023-05-16T09:23:48.843Z,8.89
2023-05-16T09:26:15.190Z,9.15
2023-05-16T09:28:41.729Z,9.15
2023-05-16T09:31:08.154Z,9.24
2023-05-16T09:33:34.530Z,8.69
2023-05-16T09:36:00.889Z,8.85
2023-05-16T09:38:27.239Z,8.55
2023-05-16T09:40:53.578Z,8.62
2023-05-16T09:43:19.948Z,7.82
2023-05-16T09:45:46.306Z,7.80
2023-05-16T09:48:12.697Z,8.00
2023-05-16T09:50:39.143Z,7.59
2023-05-16T09:53:05.632Z,7.59
2023-05-16T09:55:32.109Z,7.25
2023-05-16T09:57:58.500Z,7.34
2023-05-16T10:00:24.830Z,7.53
2023-05-16T10:02:51.285Z,7.51
2023-05-16T10:05:17.726Z,7.45
2023-05-16T10:07:44.083Z,7.53
2023-05-16T10:10:10.414Z,7.62
2023-05-16T10:12:36.767Z,7.44
2023-05-16T10:15:03.116Z,7.50
2023-05-16T10:17:29.508Z,7.45
2023-05-16T10:19:55.955Z,7.54
2023-05-16T10:22:22.284Z,7.02
2023-05-16T10:24:48.603Z,7.10
2023-05-16T10:27:14.964Z,6.94
2023-05-16T10:29:53.611Z,7.06
2023-05-16T10:32:21.390Z,7.43
2023-05-16T10:34:47.869Z,7.15
2023-05-16T10:37:14.233Z,7.18
2023-05-16T10:39:40.601Z,6.81
2023-05-16T10:42:06.918Z,6.59
2023-05-16T10:44:33.254Z,6.97
2023-05-16T10:46:59.631Z,6.36
2023-05-16T10:49:25.982Z,6.74
2023-05-16T10:51:55.188Z,6.46
2023-05-16T10:54:21.578Z,6.44
2023-05-16T10:56:47.932Z,6.37
2023-05-16T10:59:14.263Z,6.00
2023-05-16T11:01:40.632Z,6.46
2023-05-16T11:04:07.002Z,6.27
2023-05-16T11:06:33.321Z,6.59
2023-05-16T11:08:59.657Z,6.40
2023-05-16T11:11:26.000Z,5.73
2023-05-16T11:13:52.332Z,5.52
2023-05-16T11:16:18.718Z,5.89
2023-05-16T11:18:45.127Z,5.52
2023-05-16T11:21:11.460Z,6.05
2023-05-16T11:23:37.811Z,5.11
2023-05-16T11:26:04.141Z,5.11
2023-05-16T11:28:30.494Z,5.05
2023-05-16T11:30:56.952Z,4.78
2023-05-16T11:33:23.332Z,4.86
2023-05-16T11:35:49.670Z,4.70
2023-05-16T11:38:16.069Z,4.86
2023-05-16T11:40:42.433Z,5.02
2023-05-16T11:43:08.782Z,5.19
2023-05-16T11:45:35.162Z,4.94
2023-05-16T11:48:01.567Z,5.39
2023-05-16T11:50:27.953Z,5.12
2023-05-16T11:52:54.563Z,5.46
2023-05-16T11:55:28.775Z,5.06
2023-05-16T11:58:06.414Z,5.24
2023-05-16T12:00:32.757Z,5.76
2023-05-16T12:02:59.201Z,6.51
2023-05-16T12:05:25.740Z,6.70
2023-05-16T12:07:52.161Z,7.58
2023-05-16T12:10:18.485Z,6.57
2023-05-16T12:12:44.845Z,6.62
2023-05-16T12:15:11.213Z,6.99
2023-05-16T12:17:37.542Z,7.41
2023-05-16T12:20:03.884Z,7.20
2023-05-16T12:22:30.206Z,6.93
2023-05-16T12:24:56.528Z,7.77
2023-05-16T12:27:22.889Z,7.81
2023-05-16T12:29:49.216Z,7.88
2023-05-16T12:32:15.631Z,7.30
2023-05-16T12:34:42.008Z,7.89
2023-05-16T12:37:08.327Z,7.94
2023-05-16T12:39:34.997Z,7.02
2023-05-16T12:42:01.396Z,6.76
2023-05-16T12:44:27.730Z,7.33
2023-05-16T12:46:54.125Z,8.12
2023-05-16T12:49:20.539Z,7.98
2023-05-16T12:51:46.912Z,7.65
2023-05-16T12:54:13.267Z,7.80
2023-05-16T12:56:39.629Z,8.10
2023-05-16T12:59:05.954Z,8.23
2023-05-16T13:01:32.338Z,7.88
2023-05-16T13:03:58.854Z,7.36
2023-05-16T13:06:25.338Z,7.53
2023-05-16T13:08:51.671Z,7.51
2023-05-16T13:11:18.046Z,6.92
2023-05-16T13:13:44.372Z,6.56
2023-05-16T13:16:10.758Z,6.23
2023-05-16T13:18:37.201Z,5.93
2023-05-16T13:21:03.549Z,5.38
2023-05-16T13:23:29.890Z,5.23
2023-05-16T13:25:56.259Z,5.04
2023-05-16T13:28:22.607Z,5.23
2023-05-16T13:30:48.992Z,5.28
2023-05-16T13:33:15.385Z,5.21
2023-05-16T13:35:41.768Z,5.36
2023-05-16T13:38:08.121Z,5.54
2023-05-16T13:40:34.551Z,5.56
2023-05-16T13:43:00.912Z,6.13
2023-05-16T13:45:27.570Z,5.60
2023-05-16T13:47:54.200Z,5.24
2023-05-16T13:50:20.610Z,4.88
2023-05-16T13:52:46.959Z,4.87
2023-05-16T13:55:13.352Z,4.71
2023-05-16T13:57:39.709Z,4.27
2023-05-16T14:00:27.952Z,4.21
2023-05-16T14:02:52.410Z,4.44
2023-05-16T14:05:18.806Z,4.59
2023-05-16T14:07:46.802Z,4.71
2023-05-16T14:10:13.426Z,4.60
2023-05-16T14:12:39.770Z,4.40
2023-05-16T14:15:06.114Z,3.95
2023-05-16T14:17:32.542Z,4.10
2023-05-16T14:19:58.925Z,3.95
2023-05-16T14:22:25.291Z,3.76
2023-05-16T14:24:51.700Z,3.69
2023-05-16T14:27:18.036Z,3.76
2023-05-16T14:29:44.374Z,3.79
2023-05-16T14:32:10.815Z,3.67
2023-05-16T14:34:37.232Z,3.86
2023-05-16T14:37:03.581Z,4.56
2023-05-16T14:39:29.933Z,4.49
2023-05-16T14:41:56.292Z,4.17
2023-05-16T14:44:22.640Z,4.06
2023-05-16T14:46:49.101Z,4.32
2023-05-16T14:49:15.466Z,4.21
2023-05-16T14:51:41.808Z,4.21
2023-05-16T14:54:08.165Z,3.98
2023-05-16T14:56:34.514Z,4.39
2023-05-16T14:59:00.905Z,4.03
2023-05-16T15:01:27.381Z,4.11
2023-05-16T15:03:55.805Z,3.89
2023-05-16T15:06:23.025Z,3.79
2023-05-16T15:08:49.512Z,3.97
2023-05-16T15:11:15.896Z,3.99
2023-05-16T15:13:42.240Z,4.18
2023-05-16T15:16:08.702Z,4.43
2023-05-16T15:18:35.109Z,4.07
2023-05-16T15:21:01.511Z,3.73
2023-05-16T15:23:27.889Z,3.88
2023-05-16T15:25:54.417Z,3.75
2023-05-16T15:28:22.576Z,3.75
2023-05-16T15:30:49.217Z,3.36
2023-05-16T15:33:15.675Z,3.76
2023-05-16T15:35:42.074Z,4.43
2023-05-16T15:38:08.449Z,4.89
2023-05-16T15:40:34.798Z,4.67
2023-05-16T15:43:01.146Z,4.26
2023-05-16T15:45:27.701Z,3.99
2023-05-16T15:47:54.457Z,3.74
2023-05-16T15:50:20.874Z,3.87
2023-05-16T15:52:47.258Z,4.22
2023-05-16T15:55:13.644Z,4.52
2023-05-16T15:57:40.005Z,4.85
2023-05-16T16:00:06.366Z,4.63
2023-05-16T16:02:32.745Z,4.46
2023-05-16T16:04:59.151Z,4.36
2023-05-16T16:07:25.533Z,4.14
2023-05-16T16:09:51.900Z,3.80
2023-05-16T16:12:18.247Z,3.83
2023-05-16T16:14:44.626Z,4.50
2023-05-16T16:17:10.991Z,5.33
2023-05-16T16:19:37.533Z,5.53
2023-05-16T16:22:04.033Z,5.18
2023-05-16T16:24:30.378Z,5.26
2023-05-16T16:26:56.730Z,4.95
2023-05-16T16:29:23.120Z,5.50
2023-05-16T16:31:49.543Z,5.08
2023-05-16T16:34:15.942Z,5.93
2023-05-16T16:36:42.298Z,6.42
2023-05-16T16:39:08.652Z,6.01
2023-05-16T16:41:34.993Z,5.91
2023-05-16T16:44:01.349Z,5.90
2023-05-16T16:46:27.902Z,5.48
2023-05-16T16:48:54.444Z,5.29
2023-05-16T16:51:20.837Z,5.08
2023-05-16T16:53:47.178Z,5.84
2023-05-16T16:56:13.511Z,5.31
2023-05-16T16:58:39.860Z,4.70
2023-05-16T17:01:06.226Z,4.92
2023-05-16T17:03:32.701Z,4.30
2023-05-16T17:05:59.111Z,4.82
2023-05-16T17:08:25.494Z,4.68
2023-05-16T17:10:51.834Z,4.83
2023-05-16T17:13:18.196Z,5.01
2023-05-16T17:15:44.539Z,4.76
2023-05-16T17:18:10.921Z,4.63
2023-05-16T17:20:37.371Z,4.61
2023-05-16T17:23:03.831Z,5.01
2023-05-16T17:25:30.466Z,4.84
2023-05-16T17:27:57.009Z,5.47
2023-05-16T17:30:23.373Z,5.33
2023-05-16T17:32:49.752Z,4.74
2023-05-16T17:35:16.172Z,4.26
2023-05-16T17:37:42.522Z,4.03
2023-05-16T17:40:08.884Z,3.38
2023-05-16T17:42:35.263Z,3.39
2023-05-16T17:45:01.629Z,2.95
2023-05-16T17:47:27.986Z,2.61
2023-05-16T17:49:54.450Z,2.40
2023-05-16T17:52:20.858Z,2.57
2023-05-16T17:54:47.218Z,2.89
2023-05-16T17:57:13.600Z,2.98
2023-05-16T17:59:39.952Z,3.29
2023-05-16T18:02:06.288Z,2.98
2023-05-16T18:04:32.708Z,3.25
2023-05-16T18:06:59.035Z,3.71
2023-05-16T18:09:25.381Z,3.09
2023-05-16T18:11:51.776Z,2.76
2023-05-16T18:14:18.136Z,2.39
2023-05-16T18:16:44.493Z,2.49
2023-05-16T18:19:10.997Z,2.23
2023-05-16T18:21:37.468Z,2.07
2023-05-16T18:24:03.833Z,1.94
2023-05-16T18:26:30.286Z,1.64
2023-05-16T18:28:56.680Z,1.53
2023-05-16T18:31:23.030Z,1.67
2023-05-16T18:33:49.442Z,1.62
2023-05-16T18:36:15.779Z,1.58
2023-05-16T18:38:42.202Z,1.46
2023-05-16T18:41:08.667Z,1.40
2023-05-16T18:43:35.018Z,1.21
2023-05-16T18:46:01.359Z,1.33
2023-05-16T18:48:27.930Z,1.40
2023-05-16T18:50:54.386Z,1.53
2023-05-16T18:53:20.715Z,1.47
2023-05-16T18:55:47.083Z,1.97
2023-05-16T18:58:13.447Z,1.85
2023-05-16T19:00:39.805Z,1.83
2023-05-16T19:03:06.222Z,1.80
2023-05-16T19:05:32.936Z,2.13
2023-05-16T19:07:59.559Z,2.32
2023-05-16T19:10:26.111Z,2.59
2023-05-16T19:12:52.548Z,2.46
2023-05-16T19:15:18.902Z,2.67
2023-05-16T19:17:45.417Z,2.63
2023-05-16T19:20:11.945Z,2.70
2023-05-16T19:22:38.301Z,2.81
2023-05-16T19:25:04.668Z,2.73
2023-05-16T19:27:30.996Z,2.95
2023-05-16T19:29:57.346Z,2.50
2023-05-16T19:32:23.736Z,2.59
2023-05-16T19:34:50.151Z,2.43
2023-05-16T19:37:16.523Z,2.36
2023-05-16T19:39:42.926Z,2.20
2023-05-16T19:42:09.261Z,2.39
2023-05-16T19:44:35.606Z,2.04
2023-05-16T19:47:01.972Z,2.04
2023-05-16T19:49:28.920Z,2.28
2023-05-16T19:51:55.354Z,2.28
2023-05-16T19:54:21.738Z,2.51
2023-05-16T19:56:48.085Z,2.39
2023-05-16T19:59:14.428Z,2.29
2023-05-16T20:04:12.130Z,2.35
2023-05-16T20:06:38.537Z,2.27
2023-05-16T20:09:04.958Z,2.07
2023-05-16T20:11:31.332Z,2.20
2023-05-16T20:13:57.697Z,2.37
2023-05-16T20:16:24.049Z,2.17
2023-05-16T20:18:50.479Z,2.23
2023-05-16T20:21:16.917Z,2.06
2023-05-16T20:23:43.289Z,2.30
2023-05-16T20:26:09.667Z,2.18
2023-05-16T20:28:36.019Z,2.25
2023-05-16T20:31:02.387Z,2.00
2023-05-16T20:33:28.797Z,2.18
2023-05-16T20:35:55.220Z,2.01
2023-05-16T20:38:21.587Z,2.26
2023-05-16T20:40:47.939Z,2.11
2023-05-16T20:43:14.294Z,2.13
2023-05-16T20:45:40.687Z,2.28
2023-05-16T20:48:07.069Z,1.92
2023-05-16T20:50:33.486Z,2.01
2023-05-16T20:52:59.849Z,1.91
2023-05-16T20:55:26.437Z,2.04
2023-05-16T20:57:52.951Z,2.05
2023-05-16T21:00:19.306Z,1.93
2023-05-16T21:02:45.677Z,2.42
2023-05-16T21:05:24.175Z,2.12
2023-05-16T21:07:52.208Z,2.23
2023-05-16T21:10:18.553Z,2.29
2023-05-16T21:12:44.915Z,1.93
2023-05-16T21:15:11.291Z,2.11
2023-05-16T21:17:37.711Z,2.29
2023-05-16T21:20:04.106Z,2.13
2023-05-16T21:22:30.470Z,2.28
2023-05-16T21:24:56.812Z,2.52
2023-05-16T21:27:23.170Z,2.22
2023-05-16T21:29:49.526Z,2.32
2023-05-16T21:32:16.306Z,2.19
2023-05-16T21:34:42.700Z,2.41
2023-05-16T21:37:09.067Z,2.28
2023-05-16T21:39:35.405Z,2.28
2023-05-16T21:42:06.465Z,2.54
2023-05-16T21:44:32.834Z,2.54
2023-05-16T21:46:59.168Z,2.71
2023-05-16T21:49:25.505Z,2.79
2023-05-16T21:51:51.922Z,2.36
2023-05-16T21:54:29.956Z,2.54
2023-05-16T21:56:56.317Z,2.30
2023-05-16T21:59:22.653Z,2.41
2023-05-16T22:01:49.009Z,2.56
2023-05-16T22:04:15.476Z,2.40
2023-05-16T22:06:41.882Z,2.63
2023-05-16T22:09:08.239Z,2.74
2023-05-16T22:11:34.662Z,2.50
2023-05-16T22:14:01.026Z,2.52
2023-05-16T22:16:27.385Z,2.64
2023-05-16T22:18:53.909Z,2.60
2023-05-16T22:21:20.383Z,2.46
2023-05-16T22:23:46.716Z,2.65
2023-05-16T22:26:13.074Z,2.43
2023-05-16T22:28:39.407Z,2.55
2023-05-16T22:31:05.740Z,2.64
2023-05-16T22:33:32.218Z,2.54
2023-05-16T22:35:58.639Z,2.31
2023-05-16T22:38:25.006Z,2.57
2023-05-16T22:40:51.409Z,2.49
2023-05-16T22:43:17.749Z,2.27
2023-05-16T22:45:44.141Z,2.40
2023-05-16T22:48:10.644Z,2.42
2023-05-16T22:50:37.053Z,2.47
2023-05-16T22:53:03.410Z,2.59
2023-05-16T22:55:32.857Z,2.42
2023-05-16T22:57:59.199Z,2.64
2023-05-16T23:00:25.542Z,2.68
2023-05-16T23:02:52.007Z,2.76
2023-05-16T23:05:18.403Z,2.44
2023-05-16T23:07:44.744Z,2.65
2023-05-16T23:10:11.130Z,2.56
2023-05-16T23:12:37.532Z,2.49
2023-05-16T23:15:03.872Z,2.57
2023-05-16T23:17:30.251Z,2.65
2023-05-16T23:19:56.668Z,2.64
2023-05-16T23:22:23.048Z,2.82
2023-05-16T23:24:49.435Z,2.63
2023-05-16T23:27:15.775Z,2.82
2023-05-16T23:29:42.108Z,2.73
2023-05-16T23:32:08.495Z,2.47
2023-05-16T23:34:34.854Z,2.74
2023-05-16T23:37:01.196Z,2.41
2023-05-16T23:39:27.558Z,2.54
2023-05-16T23:41:53.909Z,2.63
2023-05-16T23:44:20.249Z,2.66
2023-05-16T23:46:46.621Z,2.69
2023-05-16T23:49:12.966Z,2.27
2023-05-16T23:51:55.962Z,2.38
2023-05-16T23:54:24.096Z,2.57
2023-05-16T23:56:50.471Z,2.38
2023-05-16T23:59:16.817Z,2.47
